Terminal Aerodrome Forecast
Issued by NWS Twin Cities, MN

Home | Current Version | Previous Version | Graphics & Text | Print | Product List | Glossary Off
Versions: 1 2 3 4 5 6 7 8 9 10 11 12 13

000
FTUS43 KMPX 231100
TAFSTC
TAF
KSTC 231129Z 2312/2412 12009KT P6SM SCT100 OVC200
     FM231500 13013G19KT P6SM -RA SCT030 OVC060
     FM232000 13017G25KT 4SM -RA BR SCT020 OVC035
     FM240000 13014G21KT 4SM -RA BR BKN022 OVC040
     FM240700 12013KT 3SM -RA BR BKN007 OVC015=

USA.gov is the U.S. government's official web portal to all federal, state and local government web resources and services.